sensor_id;sensor_type;location;lat;lon;timestamp;temperature;humidity
1716;DHT22;855;48.824;9.220;2023-07-13T00:00:29;22.40;65.70
1716;DHT22;855;48.824;9.220;2023-07-13T00:02:58;22.50;64.50
1716;DHT22;855;48.824;9.220;2023-07-13T00:05:26;22.40;64.70
1716;DHT22;855;48.824;9.220;2023-07-13T00:07:53;22.30;65.10
1716;DHT22;855;48.824;9.220;2023-07-13T00:10:21;22.30;64.40
1716;DHT22;855;48.824;9.220;2023-07-13T00:12:48;22.30;64.30
1716;DHT22;855;48.824;9.220;2023-07-13T00:15:17;22.20;64.90
1716;DHT22;855;48.824;9.220;2023-07-13T00:17:46;22.20;64.00
1716;DHT22;855;48.824;9.220;2023-07-13T00:20:13;22.10;63.20
1716;DHT22;855;48.824;9.220;2023-07-13T00:22:41;22.10;64.30
1716;DHT22;855;48.824;9.220;2023-07-13T00:25:10;22.00;64.50
1716;DHT22;855;48.824;9.220;2023-07-13T00:28:17;22.10;63.10
1716;DHT22;855;48.824;9.220;2023-07-13T00:38:05;21.70;64.30
1716;DHT22;855;48.824;9.220;2023-07-13T00:43:56;21.60;65.30
1716;DHT22;855;48.824;9.220;2023-07-13T01:09:58;21.10;65.50
1716;DHT22;855;48.824;9.220;2023-07-13T01:19:39;21.50;64.40
1716;DHT22;855;48.824;9.220;2023-07-13T01:22:11;21.60;66.50
1716;DHT22;855;48.824;9.220;2023-07-13T01:24:39;21.70;65.50
1716;DHT22;855;48.824;9.220;2023-07-13T01:27:09;21.70;65.60
1716;DHT22;855;48.824;9.220;2023-07-13T01:29:37;21.80;65.10
1716;DHT22;855;48.824;9.220;2023-07-13T01:32:08;21.80;64.40
1716;DHT22;855;48.824;9.220;2023-07-13T01:34:35;21.90;64.40
1716;DHT22;855;48.824;9.220;2023-07-13T01:37:03;21.90;64.00
1716;DHT22;855;48.824;9.220;2023-07-13T01:39:31;21.90;65.20
1716;DHT22;855;48.824;9.220;2023-07-13T01:41:58;21.90;64.00
1716;DHT22;855;48.824;9.220;2023-07-13T01:44:25;21.90;64.00
1716;DHT22;855;48.824;9.220;2023-07-13T01:46:52;21.90;64.70
1716;DHT22;855;48.824;9.220;2023-07-13T01:49:19;22.00;62.00
1716;DHT22;855;48.824;9.220;2023-07-13T01:51:46;22.00;64.00
1716;DHT22;855;48.824;9.220;2023-07-13T01:54:13;22.00;64.50
1716;DHT22;855;48.824;9.220;2023-07-13T01:56:41;22.00;63.90
1716;DHT22;855;48.824;9.220;2023-07-13T01:59:08;22.00;64.40
1716;DHT22;855;48.824;9.220;2023-07-13T02:01:35;22.10;64.40
1716;DHT22;855;48.824;9.220;2023-07-13T02:04:02;22.00;64.30
1716;DHT22;855;48.824;9.220;2023-07-13T02:06:29;21.90;66.80
1716;DHT22;855;48.824;9.220;2023-07-13T02:08:55;21.90;66.80
1716;DHT22;855;48.824;9.220;2023-07-13T02:11:22;21.80;68.20
1716;DHT22;855;48.824;9.220;2023-07-13T02:13:51;21.50;70.00
1716;DHT22;855;48.824;9.220;2023-07-13T02:16:18;21.40;70.20
1716;DHT22;855;48.824;9.220;2023-07-13T02:18:45;21.30;70.90
1716;DHT22;855;48.824;9.220;2023-07-13T02:21:13;21.20;71.20
1716;DHT22;855;48.824;9.220;2023-07-13T02:23:40;21.00;71.80
1716;DHT22;855;48.824;9.220;2023-07-13T02:39:26;20.70;72.70
1716;DHT22;855;48.824;9.220;2023-07-13T02:41:53;20.70;72.10
1716;DHT22;855;48.824;9.220;2023-07-13T02:44:20;20.60;71.40
1716;DHT22;855;48.824;9.220;2023-07-13T02:53:24;20.70;74.10
1716;DHT22;855;48.824;9.220;2023-07-13T02:59:28;20.80;72.90
1716;DHT22;855;48.824;9.220;2023-07-13T03:05:16;20.60;75.00
1716;DHT22;855;48.824;9.220;2023-07-13T03:07:43;20.60;74.90
1716;DHT22;855;48.824;9.220;2023-07-13T03:50:46;20.70;75.80
1716;DHT22;855;48.824;9.220;2023-07-13T03:53:28;20.70;75.50
1716;DHT22;855;48.824;9.220;2023-07-13T03:59:49;20.90;75.60
1716;DHT22;855;48.824;9.220;2023-07-13T04:06:07;21.00;75.10
1716;DHT22;855;48.824;9.220;2023-07-13T04:11:58;20.80;75.80
1716;DHT22;855;48.824;9.220;2023-07-13T04:14:25;20.90;75.80
1716;DHT22;855;48.824;9.220;2023-07-13T04:16:52;20.90;76.00
1716;DHT22;855;48.824;9.220;2023-07-13T04:19:20;21.00;75.60
1716;DHT22;855;48.824;9.220;2023-07-13T04:21:48;21.00;74.90
1716;DHT22;855;48.824;9.220;2023-07-13T04:24:15;21.10;74.70
1716;DHT22;855;48.824;9.220;2023-07-13T04:26:42;21.10;74.20
1716;DHT22;855;48.824;9.220;2023-07-13T04:29:09;21.20;74.20
1716;DHT22;855;48.824;9.220;2023-07-13T04:31:36;21.30;73.90
1716;DHT22;855;48.824;9.220;2023-07-13T04:34:03;21.40;73.90
1716;DHT22;855;48.824;9.220;2023-07-13T04:36:30;21.50;73.50
1716;DHT22;855;48.824;9.220;2023-07-13T04:38:58;21.60;72.90
1716;DHT22;855;48.824;9.220;2023-07-13T04:41:24;21.60;72.30
1716;DHT22;855;48.824;9.220;2023-07-13T04:43:51;21.60;69.70
1716;DHT22;855;48.824;9.220;2023-07-13T04:46:18;21.60;69.60
1716;DHT22;855;48.824;9.220;2023-07-13T04:48:45;21.60;69.20
1716;DHT22;855;48.824;9.220;2023-07-13T04:51:12;21.70;69.30
1716;DHT22;855;48.824;9.220;2023-07-13T04:53:39;21.70;67.60
1716;DHT22;855;48.824;9.220;2023-07-13T04:56:07;21.80;66.80
1716;DHT22;855;48.824;9.220;2023-07-13T04:58:34;21.80;68.10
1716;DHT22;855;48.824;9.220;2023-07-13T05:01:02;21.80;67.20
1716;DHT22;855;48.824;9.220;2023-07-13T05:03:29;21.90;67.10
1716;DHT22;855;48.824;9.220;2023-07-13T05:05:57;21.90;66.30
1716;DHT22;855;48.824;9.220;2023-07-13T05:08:24;21.80;67.50
1716;DHT22;855;48.824;9.220;2023-07-13T05:10:52;21.80;68.00
1716;DHT22;855;48.824;9.220;2023-07-13T05:13:20;21.80;69.00
1716;DHT22;855;48.824;9.220;2023-07-13T05:15:48;21.90;69.00
1716;DHT22;855;48.824;9.220;2023-07-13T05:18:21;22.10;69.40
1716;DHT22;855;48.824;9.220;2023-07-13T05:20:56;22.40;69.00
1716;DHT22;855;48.824;9.220;2023-07-13T05:23:23;22.60;66.50
1716;DHT22;855;48.824;9.220;2023-07-13T05:25:50;22.90;64.70
1716;DHT22;855;48.824;9.220;2023-07-13T05:28:17;23.20;61.80
1716;DHT22;855;48.824;9.220;2023-07-13T05:30:47;23.10;60.30
1716;DHT22;855;48.824;9.220;2023-07-13T05:33:14;23.10;61.00
1716;DHT22;855;48.824;9.220;2023-07-13T05:35:40;23.10;60.10
1716;DHT22;855;48.824;9.220;2023-07-13T05:38:07;23.10;60.00
1716;DHT22;855;48.824;9.220;2023-07-13T05:40:34;23.00;59.00
1716;DHT22;855;48.824;9.220;2023-07-13T05:43:01;22.90;59.20
1716;DHT22;855;48.824;9.220;2023-07-13T05:45:28;22.90;61.00
1716;DHT22;855;48.824;9.220;2023-07-13T05:47:56;22.90;61.10
1716;DHT22;855;48.824;9.220;2023-07-13T05:50:23;22.80;59.90
1716;DHT22;855;48.824;9.220;2023-07-13T05:52:49;22.80;61.40
1716;DHT22;855;48.824;9.220;2023-07-13T05:55:17;22.90;60.40
1716;DHT22;855;48.824;9.220;2023-07-13T05:57:44;23.00;61.10
1716;DHT22;855;48.824;9.220;2023-07-13T06:00:12;23.10;60.30
1716;DHT22;855;48.824;9.220;2023-07-13T06:02:39;23.10;59.80
1716;DHT22;855;48.824;9.220;2023-07-13T06:05:10;23.10;59.30
1716;DHT22;855;48.824;9.220;2023-07-13T06:07:37;23.20;59.00
1716;DHT22;855;48.824;9.220;2023-07-13T06:10:05;23.20;58.90
1716;DHT22;855;48.824;9.220;2023-07-13T06:12:31;23.20;58.50
1716;DHT22;855;48.824;9.220;2023-07-13T06:14:58;23.30;57.40
1716;DHT22;855;48.824;9.220;2023-07-13T06:17:25;23.60;58.20
1716;DHT22;855;48.824;9.220;2023-07-13T06:19:52;23.90;57.30
1716;DHT22;855;48.824;9.220;2023-07-13T06:22:20;24.20;55.50
1716;DHT22;855;48.824;9.220;2023-07-13T06:24:47;24.40;53.40
1716;DHT22;855;48.824;9.220;2023-07-13T06:27:14;24.50;51.70
1716;DHT22;855;48.824;9.220;2023-07-13T06:29:41;24.40;52.10
1716;DHT22;855;48.824;9.220;2023-07-13T06:32:10;24.60;51.70
1716;DHT22;855;48.824;9.220;2023-07-13T06:34:37;24.50;51.70
1716;DHT22;855;48.824;9.220;2023-07-13T06:37:04;24.60;53.10
1716;DHT22;855;48.824;9.220;2023-07-13T06:39:32;24.50;52.80
1716;DHT22;855;48.824;9.220;2023-07-13T06:41:59;24.50;53.40
1716;DHT22;855;48.824;9.220;2023-07-13T06:44:26;24.70;52.70
1716;DHT22;855;48.824;9.220;2023-07-13T06:46:53;24.90;51.10
1716;DHT22;855;48.824;9.220;2023-07-13T06:49:20;25.10;49.80
1716;DHT22;855;48.824;9.220;2023-07-13T06:51:47;25.10;48.80
1716;DHT22;855;48.824;9.220;2023-07-13T06:54:14;25.30;49.40
1716;DHT22;855;48.824;9.220;2023-07-13T06:56:42;25.50;48.10
1716;DHT22;855;48.824;9.220;2023-07-13T06:59:08;25.50;47.10
1716;DHT22;855;48.824;9.220;2023-07-13T07:01:35;25.70;46.50
1716;DHT22;855;48.824;9.220;2023-07-13T07:04:03;25.70;47.00
1716;DHT22;855;48.824;9.220;2023-07-13T07:06:30;25.80;46.00
1716;DHT22;855;48.824;9.220;2023-07-13T07:08:57;25.70;46.50
1716;DHT22;855;48.824;9.220;2023-07-13T07:11:25;25.60;46.30
1716;DHT22;855;48.824;9.220;2023-07-13T07:13:53;25.60;46.80
1716;DHT22;855;48.824;9.220;2023-07-13T07:16:21;25.70;46.20
1716;DHT22;855;48.824;9.220;2023-07-13T07:18:48;25.90;46.50
1716;DHT22;855;48.824;9.220;2023-07-13T07:21:15;26.10;45.20
1716;DHT22;855;48.824;9.220;2023-07-13T07:23:42;26.20;45.50
1716;DHT22;855;48.824;9.220;2023-07-13T07:26:09;26.30;45.20
1716;DHT22;855;48.824;9.220;2023-07-13T07:28:37;26.30;46.10
1716;DHT22;855;48.824;9.220;2023-07-13T07:31:06;26.40;45.50
1716;DHT22;855;48.824;9.220;2023-07-13T07:33:33;26.40;44.80
1716;DHT22;855;48.824;9.220;2023-07-13T07:36:00;26.60;45.30
1716;DHT22;855;48.824;9.220;2023-07-13T07:38:27;26.40;44.50
1716;DHT22;855;48.824;9.220;2023-07-13T07:40:53;26.40;46.20
1716;DHT22;855;48.824;9.220;2023-07-13T07:43:20;26.40;44.70
1716;DHT22;855;48.824;9.220;2023-07-13T07:45:47;26.40;44.80
1716;DHT22;855;48.824;9.220;2023-07-13T07:48:15;26.40;44.50
1716;DHT22;855;48.824;9.220;2023-07-13T07:50:42;26.30;43.10
1716;DHT22;855;48.824;9.220;2023-07-13T07:53:11;25.70;42.60
1716;DHT22;855;48.824;9.220;2023-07-13T07:55:38;25.60;42.80
1716;DHT22;855;48.824;9.220;2023-07-13T07:58:06;25.30;44.00
1716;DHT22;855;48.824;9.220;2023-07-13T08:00:33;25.30;45.70
1716;DHT22;855;48.824;9.220;2023-07-13T08:03:01;25.30;45.00
1716;DHT22;855;48.824;9.220;2023-07-13T08:05:29;25.40;43.50
1716;DHT22;855;48.824;9.220;2023-07-13T08:07:56;25.40;44.70
1716;DHT22;855;48.824;9.220;2023-07-13T08:10:23;25.50;44.70
1716;DHT22;855;48.824;9.220;2023-07-13T08:12:50;25.60;45.20
1716;DHT22;855;48.824;9.220;2023-07-13T08:15:17;25.60;45.00
1716;DHT22;855;48.824;9.220;2023-07-13T08:17:48;25.70;45.60
1716;DHT22;855;48.824;9.220;2023-07-13T08:20:15;25.70;44.60
1716;DHT22;855;48.824;9.220;2023-07-13T08:22:44;25.70;44.00
1716;DHT22;855;48.824;9.220;2023-07-13T08:25:11;25.90;43.00
1716;DHT22;855;48.824;9.220;2023-07-13T08:27:38;26.10;43.60
1716;DHT22;855;48.824;9.220;2023-07-13T08:30:06;26.10;42.00
1716;DHT22;855;48.824;9.220;2023-07-13T08:32:33;26.10;43.50
1716;DHT22;855;48.824;9.220;2023-07-13T08:35:00;26.40;42.70
1716;DHT22;855;48.824;9.220;2023-07-13T08:37:27;26.40;42.50
1716;DHT22;855;48.824;9.220;2023-07-13T08:39:55;26.30;42.30
1716;DHT22;855;48.824;9.220;2023-07-13T08:42:32;26.00;42.10
1716;DHT22;855;48.824;9.220;2023-07-13T08:45:07;25.80;42.10
1716;DHT22;855;48.824;9.220;2023-07-13T08:47:40;25.90;43.50
1716;DHT22;855;48.824;9.220;2023-07-13T08:50:14;26.20;42.80
1716;DHT22;855;48.824;9.220;2023-07-13T08:52:42;26.60;42.60
1716;DHT22;855;48.824;9.220;2023-07-13T08:55:13;26.60;41.20
1716;DHT22;855;48.824;9.220;2023-07-13T08:57:42;26.50;42.00
1716;DHT22;855;48.824;9.220;2023-07-13T09:00:13;26.50;42.10
1716;DHT22;855;48.824;9.220;2023-07-13T09:02:45;26.40;42.50
1716;DHT22;855;48.824;9.220;2023-07-13T09:05:20;26.30;42.80
1716;DHT22;855;48.824;9.220;2023-07-13T09:08:01;26.30;42.20
1716;DHT22;855;48.824;9.220;2023-07-13T09:10:41;26.30;41.10
1716;DHT22;855;48.824;9.220;2023-07-13T09:13:20;26.40;41.60
1716;DHT22;855;48.824;9.220;2023-07-13T09:15:50;26.60;41.50
1716;DHT22;855;48.824;9.220;2023-07-13T09:18:21;26.50;41.70
1716;DHT22;855;48.824;9.220;2023-07-13T09:20:52;26.60;41.60
1716;DHT22;855;48.824;9.220;2023-07-13T09:23:22;26.60;41.10
1716;DHT22;855;48.824;9.220;2023-07-13T09:25:54;26.60;41.70
1716;DHT22;855;48.824;9.220;2023-07-13T09:28:26;26.60;41.20
1716;DHT22;855;48.824;9.220;2023-07-13T09:30:58;26.80;42.20
1716;DHT22;855;48.824;9.220;2023-07-13T09:33:27;26.50;41.50
1716;DHT22;855;48.824;9.220;2023-07-13T09:35:56;26.50;43.20
1716;DHT22;855;48.824;9.220;2023-07-13T09:38:25;26.30;42.50
1716;DHT22;855;48.824;9.220;2023-07-13T09:41:04;26.20;42.70
1716;DHT22;855;48.824;9.220;2023-07-13T09:43:36;26.10;42.50
1716;DHT22;855;48.824;9.220;2023-07-13T09:46:03;26.10;42.20
1716;DHT22;855;48.824;9.220;2023-07-13T09:48:35;26.10;44.30
1716;DHT22;855;48.824;9.220;2023-07-13T09:51:09;26.30;42.20
1716;DHT22;855;48.824;9.220;2023-07-13T09:53:42;26.30;42.60
1716;DHT22;855;48.824;9.220;2023-07-13T09:56:20;26.20;43.30
1716;DHT22;855;48.824;9.220;2023-07-13T09:58:47;26.10;42.70
1716;DHT22;855;48.824;9.220;2023-07-13T10:01:31;25.80;44.00
1716;DHT22;855;48.824;9.220;2023-07-13T10:03:58;26.10;43.50
1716;DHT22;855;48.824;9.220;2023-07-13T10:06:25;26.40;45.00
1716;DHT22;855;48.824;9.220;2023-07-13T10:08:53;26.90;42.50
1716;DHT22;855;48.824;9.220;2023-07-13T10:11:26;26.80;43.20
1716;DHT22;855;48.824;9.220;2023-07-13T10:13:58;26.80;41.40
1716;DHT22;855;48.824;9.220;2023-07-13T10:16:29;26.80;42.20
1716;DHT22;855;48.824;9.220;2023-07-13T10:18:59;26.70;41.70
1716;DHT22;855;48.824;9.220;2023-07-13T10:21:33;27.00;42.30
1716;DHT22;855;48.824;9.220;2023-07-13T10:24:06;27.30;40.10
1716;DHT22;855;48.824;9.220;2023-07-13T10:26:41;27.50;41.20
1716;DHT22;855;48.824;9.220;2023-07-13T10:29:13;27.70;40.20
1716;DHT22;855;48.824;9.220;2023-07-13T10:31:40;27.60;39.70
1716;DHT22;855;48.824;9.220;2023-07-13T10:34:09;27.70;39.60
1716;DHT22;855;48.824;9.220;2023-07-13T10:36:40;27.90;40.10
1716;DHT22;855;48.824;9.220;2023-07-13T10:39:15;28.00;39.20
1716;DHT22;855;48.824;9.220;2023-07-13T10:41:47;27.90;40.00
1716;DHT22;855;48.824;9.220;2023-07-13T10:44:21;27.50;40.20
1716;DHT22;855;48.824;9.220;2023-07-13T10:46:53;27.30;40.10
1716;DHT22;855;48.824;9.220;2023-07-13T10:49:20;27.10;41.40
1716;DHT22;855;48.824;9.220;2023-07-13T10:51:48;26.90;41.70
1716;DHT22;855;48.824;9.220;2023-07-13T10:54:19;26.90;42.20
1716;DHT22;855;48.824;9.220;2023-07-13T10:56:52;27.20;42.50
1716;DHT22;855;48.824;9.220;2023-07-13T10:59:25;27.40;40.50
1716;DHT22;855;48.824;9.220;2023-07-13T11:01:58;27.50;40.40
1716;DHT22;855;48.824;9.220;2023-07-13T11:04:27;27.40;40.00
1716;DHT22;855;48.824;9.220;2023-07-13T11:06:58;27.40;40.60
1716;DHT22;855;48.824;9.220;2023-07-13T11:09:39;27.30;40.70
1716;DHT22;855;48.824;9.220;2023-07-13T11:12:10;27.60;41.60
1716;DHT22;855;48.824;9.220;2023-07-13T11:15:04;27.60;39.70
1716;DHT22;855;48.824;9.220;2023-07-13T11:17:38;27.70;41.00
1716;DHT22;855;48.824;9.220;2023-07-13T11:20:34;27.70;40.00
1716;DHT22;855;48.824;9.220;2023-07-13T11:23:28;27.70;40.00
1716;DHT22;855;48.824;9.220;2023-07-13T11:25:55;27.70;40.40
1716;DHT22;855;48.824;9.220;2023-07-13T11:28:25;27.70;40.50
1716;DHT22;855;48.824;9.220;2023-07-13T11:31:12;27.50;40.50
1716;DHT22;855;48.824;9.220;2023-07-13T11:33:56;27.70;40.60
1716;DHT22;855;48.824;9.220;2023-07-13T11:36:27;27.70;39.00
1716;DHT22;855;48.824;9.220;2023-07-13T11:39:01;27.60;39.70
1716;DHT22;855;48.824;9.220;2023-07-13T11:41:30;27.80;39.20
1716;DHT22;855;48.824;9.220;2023-07-13T11:44:07;27.80;40.60
1716;DHT22;855;48.824;9.220;2023-07-13T11:46:34;27.70;39.20
1716;DHT22;855;48.824;9.220;2023-07-13T11:49:01;27.40;39.60
1716;DHT22;855;48.824;9.220;2023-07-13T11:51:32;27.10;41.00
1716;DHT22;855;48.824;9.220;2023-07-13T11:54:02;27.30;40.70
1716;DHT22;855;48.824;9.220;2023-07-13T11:56:30;27.40;40.60
1716;DHT22;855;48.824;9.220;2023-07-13T11:59:05;27.70;40.40
1716;DHT22;855;48.824;9.220;2023-07-13T12:01:34;28.10;38.40
1716;DHT22;855;48.824;9.220;2023-07-13T12:04:04;28.40;38.10
1716;DHT22;855;48.824;9.220;2023-07-13T12:06:33;28.70;38.20
1716;DHT22;855;48.824;9.220;2023-07-13T12:09:03;29.00;37.00
1716;DHT22;855;48.824;9.220;2023-07-13T12:11:39;28.80;36.90
1716;DHT22;855;48.824;9.220;2023-07-13T12:14:13;28.50;37.20
1716;DHT22;855;48.824;9.220;2023-07-13T12:16:40;28.60;37.20
1716;DHT22;855;48.824;9.220;2023-07-13T12:19:16;28.50;37.60
1716;DHT22;855;48.824;9.220;2023-07-13T12:21:44;28.10;38.10
1716;DHT22;855;48.824;9.220;2023-07-13T12:24:15;27.90;38.60
1716;DHT22;855;48.824;9.220;2023-07-13T12:26:43;27.70;38.40
1716;DHT22;855;48.824;9.220;2023-07-13T12:29:16;27.70;38.40
1716;DHT22;855;48.824;9.220;2023-07-13T12:31:46;27.50;39.50
1716;DHT22;855;48.824;9.220;2023-07-13T12:34:15;27.70;39.40
1716;DHT22;855;48.824;9.220;2023-07-13T12:36:47;27.60;37.90
1716;DHT22;855;48.824;9.220;2023-07-13T12:39:17;27.40;38.50
1716;DHT22;855;48.824;9.220;2023-07-13T12:41:45;27.50;39.20
1716;DHT22;855;48.824;9.220;2023-07-13T12:44:16;27.80;38.90
1716;DHT22;855;48.824;9.220;2023-07-13T12:46:54;28.10;37.90
1716;DHT22;855;48.824;9.220;2023-07-13T12:49:26;28.20;38.50
1716;DHT22;855;48.824;9.220;2023-07-13T12:51:58;28.60;37.60
1716;DHT22;855;48.824;9.220;2023-07-13T12:54:27;28.60;36.00
1716;DHT22;855;48.824;9.220;2023-07-13T12:56:54;28.70;35.60
1716;DHT22;855;48.824;9.220;2023-07-13T12:59:29;28.30;37.20
1716;DHT22;855;48.824;9.220;2023-07-13T13:01:59;28.20;37.60
1716;DHT22;855;48.824;9.220;2023-07-13T13:04:28;28.10;37.40
1716;DHT22;855;48.824;9.220;2023-07-13T13:07:02;28.20;37.70
1716;DHT22;855;48.824;9.220;2023-07-13T13:09:29;28.30;35.70
1716;DHT22;855;48.824;9.220;2023-07-13T13:11:56;28.30;35.90
1716;DHT22;855;48.824;9.220;2023-07-13T13:14:25;28.20;36.10
1716;DHT22;855;48.824;9.220;2023-07-13T13:16:52;28.30;36.70
1716;DHT22;855;48.824;9.220;2023-07-13T13:19:22;28.30;36.10
1716;DHT22;855;48.824;9.220;2023-07-13T13:21:50;28.00;36.10
1716;DHT22;855;48.824;9.220;2023-07-13T13:24:19;27.70;36.70
1716;DHT22;855;48.824;9.220;2023-07-13T13:26:48;27.80;37.70
1716;DHT22;855;48.824;9.220;2023-07-13T13:29:17;27.50;37.00
1716;DHT22;855;48.824;9.220;2023-07-13T13:31:46;27.50;37.50
1716;DHT22;855;48.824;9.220;2023-07-13T13:34:15;27.70;37.50
1716;DHT22;855;48.824;9.220;2023-07-13T13:36:42;28.10;37.50
1716;DHT22;855;48.824;9.220;2023-07-13T13:39:19;28.10;36.50
1716;DHT22;855;48.824;9.220;2023-07-13T13:41:46;28.20;37.50
1716;DHT22;855;48.824;9.220;2023-07-13T13:44:15;28.50;36.10
1716;DHT22;855;48.824;9.220;2023-07-13T13:46:45;28.50;35.70
1716;DHT22;855;48.824;9.220;2023-07-13T13:49:14;28.40;36.90
1716;DHT22;855;48.824;9.220;2023-07-13T13:51:42;28.30;35.70
1716;DHT22;855;48.824;9.220;2023-07-13T13:54:11;28.50;37.10
1716;DHT22;855;48.824;9.220;2023-07-13T13:56:39;28.50;36.60
1716;DHT22;855;48.824;9.220;2023-07-13T13:59:05;28.60;36.90
1716;DHT22;855;48.824;9.220;2023-07-13T14:01:34;28.60;35.10
1716;DHT22;855;48.824;9.220;2023-07-13T14:04:03;28.40;36.10
1716;DHT22;855;48.824;9.220;2023-07-13T14:06:31;28.20;35.90
1716;DHT22;855;48.824;9.220;2023-07-13T14:08:58;27.80;36.50
1716;DHT22;855;48.824;9.220;2023-07-13T14:11:25;27.60;36.90
1716;DHT22;855;48.824;9.220;2023-07-13T14:13:55;27.40;37.40
1716;DHT22;855;48.824;9.220;2023-07-13T14:16:26;27.20;37.50
1716;DHT22;855;48.824;9.220;2023-07-13T14:18:55;27.20;39.00
1716;DHT22;855;48.824;9.220;2023-07-13T14:21:26;27.20;38.60
1716;DHT22;855;48.824;9.220;2023-07-13T14:23:53;27.30;38.00
1716;DHT22;855;48.824;9.220;2023-07-13T14:26:22;27.40;38.00
1716;DHT22;855;48.824;9.220;2023-07-13T14:28:52;27.70;36.90
1716;DHT22;855;48.824;9.220;2023-07-13T14:31:20;27.80;36.60
1716;DHT22;855;48.824;9.220;2023-07-13T14:33:47;27.90;35.90
1716;DHT22;855;48.824;9.220;2023-07-13T14:36:26;27.90;37.00
1716;DHT22;855;48.824;9.220;2023-07-13T14:38:55;27.90;36.50
1716;DHT22;855;48.824;9.220;2023-07-13T14:41:22;28.10;37.00
1716;DHT22;855;48.824;9.220;2023-07-13T14:43:50;28.20;35.90
1716;DHT22;855;48.824;9.220;2023-07-13T14:46:26;28.30;35.60
1716;DHT22;855;48.824;9.220;2023-07-13T14:49:00;28.30;36.00
1716;DHT22;855;48.824;9.220;2023-07-13T14:51:30;28.30;36.40
1716;DHT22;855;48.824;9.220;2023-07-13T14:53:57;28.40;36.60
1716;DHT22;855;48.824;9.220;2023-07-13T14:56:25;28.20;36.60
1716;DHT22;855;48.824;9.220;2023-07-13T14:58:51;28.10;37.50
1716;DHT22;855;48.824;9.220;2023-07-13T15:01:21;27.80;37.20
1716;DHT22;855;48.824;9.220;2023-07-13T15:03:51;27.70;37.60
1716;DHT22;855;48.824;9.220;2023-07-13T15:06:19;27.60;38.10
1716;DHT22;855;48.824;9.220;2023-07-13T15:08:47;27.50;38.50
1716;DHT22;855;48.824;9.220;2023-07-13T15:11:15;27.50;38.70
1716;DHT22;855;48.824;9.220;2023-07-13T15:13:43;27.40;37.90
1716;DHT22;855;48.824;9.220;2023-07-13T15:16:15;27.40;39.20
1716;DHT22;855;48.824;9.220;2023-07-13T15:18:44;27.50;38.50
1716;DHT22;855;48.824;9.220;2023-07-13T15:21:13;27.50;38.60
1716;DHT22;855;48.824;9.220;2023-07-13T15:23:41;27.40;38.60
1716;DHT22;855;48.824;9.220;2023-07-13T15:26:12;27.40;38.50
1716;DHT22;855;48.824;9.220;2023-07-13T15:28:41;27.40;39.00
1716;DHT22;855;48.824;9.220;2023-07-13T15:31:18;27.40;38.20
1716;DHT22;855;48.824;9.220;2023-07-13T15:33:45;27.30;38.70
1716;DHT22;855;48.824;9.220;2023-07-13T15:36:13;27.40;38.50
1716;DHT22;855;48.824;9.220;2023-07-13T15:38:40;27.30;38.90
1716;DHT22;855;48.824;9.220;2023-07-13T15:41:19;27.30;38.60
1716;DHT22;855;48.824;9.220;2023-07-13T15:43:48;27.30;38.70
1716;DHT22;855;48.824;9.220;2023-07-13T15:46:17;27.10;39.10
1716;DHT22;855;48.824;9.220;2023-07-13T15:48:45;26.90;39.40
1716;DHT22;855;48.824;9.220;2023-07-13T15:51:16;26.80;39.20
1716;DHT22;855;48.824;9.220;2023-07-13T15:53:45;26.80;39.20
1716;DHT22;855;48.824;9.220;2023-07-13T15:56:24;26.80;39.00
1716;DHT22;855;48.824;9.220;2023-07-13T15:58:51;26.80;39.90
1716;DHT22;855;48.824;9.220;2023-07-13T16:01:20;26.90;39.60
1716;DHT22;855;48.824;9.220;2023-07-13T16:03:47;27.00;38.70
1716;DHT22;855;48.824;9.220;2023-07-13T16:06:16;27.00;39.60
1716;DHT22;855;48.824;9.220;2023-07-13T16:08:48;27.10;39.00
1716;DHT22;855;48.824;9.220;2023-07-13T16:11:18;27.00;39.50
1716;DHT22;855;48.824;9.220;2023-07-13T16:13:48;27.00;39.20
1716;DHT22;855;48.824;9.220;2023-07-13T16:16:19;26.90;39.20
1716;DHT22;855;48.824;9.220;2023-07-13T16:18:46;27.00;39.60
1716;DHT22;855;48.824;9.220;2023-07-13T16:21:13;27.10;39.50
1716;DHT22;855;48.824;9.220;2023-07-13T16:23:41;27.10;39.10
1716;DHT22;855;48.824;9.220;2023-07-13T16:26:26;27.20;39.00
1716;DHT22;855;48.824;9.220;2023-07-13T16:28:55;27.30;39.90
1716;DHT22;855;48.824;9.220;2023-07-13T16:31:30;27.50;39.10
1716;DHT22;855;48.824;9.220;2023-07-13T16:33:58;27.30;38.70
1716;DHT22;855;48.824;9.220;2023-07-13T16:36:26;27.20;39.10
1716;DHT22;855;48.824;9.220;2023-07-13T16:38:53;27.10;39.10
1716;DHT22;855;48.824;9.220;2023-07-13T16:41:20;26.90;38.50
1716;DHT22;855;48.824;9.220;2023-07-13T16:43:47;26.90;39.00
1716;DHT22;855;48.824;9.220;2023-07-13T16:46:21;26.80;39.90
1716;DHT22;855;48.824;9.220;2023-07-13T16:48:48;26.70;39.50
1716;DHT22;855;48.824;9.220;2023-07-13T16:51:15;26.70;39.10
1716;DHT22;855;48.824;9.220;2023-07-13T16:53:42;26.70;39.90
1716;DHT22;855;48.824;9.220;2023-07-13T16:56:14;26.70;40.20
1716;DHT22;855;48.824;9.220;2023-07-13T16:58:42;26.70;40.60
1716;DHT22;855;48.824;9.220;2023-07-13T17:01:08;26.70;40.50
1716;DHT22;855;48.824;9.220;2023-07-13T17:03:38;26.80;40.40
1716;DHT22;855;48.824;9.220;2023-07-13T17:06:20;27.00;40.40
1716;DHT22;855;48.824;9.220;2023-07-13T17:08:54;26.80;39.40
1716;DHT22;855;48.824;9.220;2023-07-13T17:11:22;26.80;39.20
1716;DHT22;855;48.824;9.220;2023-07-13T17:13:53;26.90;39.40
1716;DHT22;855;48.824;9.220;2023-07-13T17:16:20;26.90;39.70
1716;DHT22;855;48.824;9.220;2023-07-13T17:18:51;26.80;40.20
1716;DHT22;855;48.824;9.220;2023-07-13T17:21:18;26.80;39.50
1716;DHT22;855;48.824;9.220;2023-07-13T17:23:45;26.70;39.60
1716;DHT22;855;48.824;9.220;2023-07-13T17:26:12;26.40;40.00
1716;DHT22;855;48.824;9.220;2023-07-13T17:28:40;26.40;39.90
1716;DHT22;855;48.824;9.220;2023-07-13T17:31:12;26.30;40.60
1716;DHT22;855;48.824;9.220;2023-07-13T17:33:44;26.30;40.90
1716;DHT22;855;48.824;9.220;2023-07-13T17:36:15;26.10;40.90
1716;DHT22;855;48.824;9.220;2023-07-13T17:38:44;26.10;40.70
1716;DHT22;855;48.824;9.220;2023-07-13T17:41:13;26.20;41.40
1716;DHT22;855;48.824;9.220;2023-07-13T17:43:40;26.30;41.20
1716;DHT22;855;48.824;9.220;2023-07-13T17:46:14;26.20;41.50
1716;DHT22;855;48.824;9.220;2023-07-13T17:48:43;26.20;41.20
1716;DHT22;855;48.824;9.220;2023-07-13T17:51:11;26.20;41.80
1716;DHT22;855;48.824;9.220;2023-07-13T17:53:40;26.30;42.10
1716;DHT22;855;48.824;9.220;2023-07-13T17:56:08;26.40;42.00
1716;DHT22;855;48.824;9.220;2023-07-13T17:58:36;26.40;42.50
1716;DHT22;855;48.824;9.220;2023-07-13T18:01:03;26.30;42.20
1716;DHT22;855;48.824;9.220;2023-07-13T18:03:33;26.20;42.10
1716;DHT22;855;48.824;9.220;2023-07-13T18:06:12;26.10;42.20
1716;DHT22;855;48.824;9.220;2023-07-13T18:08:45;26.10;42.60
1716;DHT22;855;48.824;9.220;2023-07-13T18:11:13;26.00;42.60
1716;DHT22;855;48.824;9.220;2023-07-13T18:13:40;25.90;42.60
1716;DHT22;855;48.824;9.220;2023-07-13T18:16:15;25.70;42.70
1716;DHT22;855;48.824;9.220;2023-07-13T18:18:44;25.60;43.30
1716;DHT22;855;48.824;9.220;2023-07-13T18:21:12;25.60;43.70
1716;DHT22;855;48.824;9.220;2023-07-13T18:23:43;25.50;43.70
1716;DHT22;855;48.824;9.220;2023-07-13T18:26:12;25.60;44.30
1716;DHT22;855;48.824;9.220;2023-07-13T18:28:39;25.60;44.50
1716;DHT22;855;48.824;9.220;2023-07-13T18:31:11;25.50;43.80